createdAt,value
2019-04-05T00:00:46.135Z,58.00
2019-04-05T00:03:34.247Z,58.00
2019-04-05T00:06:22.748Z,58.40
2019-04-05T00:09:12.180Z,58.10
2019-04-05T00:12:01.135Z,58.10
2019-04-05T00:14:49.482Z,58.10
2019-04-05T00:17:37.797Z,58.10
2019-04-05T00:20:26.064Z,58.20
2019-04-05T00:23:14.610Z,58.10
2019-04-05T00:26:02.941Z,58.10
2019-04-05T00:28:51.841Z,58.20
2019-04-05T00:31:40.589Z,58.20
2019-04-05T00:34:29.897Z,58.20
2019-04-05T00:37:18.005Z,58.20
2019-04-05T00:40:09.467Z,58.30
2019-04-05T00:42:58.152Z,58.30
2019-04-05T00:45:47.272Z,58.20
2019-04-05T00:48:35.286Z,58.40
2019-04-05T00:51:23.578Z,58.30
2019-04-05T00:54:11.912Z,58.40
2019-04-05T00:57:00.681Z,58.30
2019-04-05T00:59:49.015Z,58.40
2019-04-05T01:02:37.738Z,58.50
2019-04-05T01:05:26.524Z,58.50
2019-04-05T01:08:14.951Z,58.60
2019-04-05T01:11:04.195Z,58.60
2019-04-05T01:13:36.517Z,58.60
2019-04-05T01:16:25.201Z,58.60
2019-04-05T01:19:15.755Z,58.60
2019-04-05T01:22:05.948Z,58.60
2019-04-05T01:24:54.320Z,58.70
2019-04-05T01:27:43.499Z,58.60
2019-04-05T01:30:32.623Z,58.60
2019-04-05T01:33:21.530Z,58.60
2019-04-05T01:36:10.233Z,58.70
2019-04-05T01:38:58.727Z,58.70
2019-04-05T01:41:48.938Z,58.70
2019-04-05T01:44:39.520Z,58.80
2019-04-05T01:47:28.353Z,58.80
2019-04-05T01:50:17.212Z,58.80
2019-04-05T01:53:05.999Z,58.90
2019-04-05T01:55:54.413Z,58.90
2019-04-05T01:58:42.921Z,59.00
2019-04-05T02:01:31.859Z,59.00
2019-04-05T02:04:20.287Z,59.00
2019-04-05T02:07:08.873Z,59.00
2019-04-05T02:09:58.167Z,58.90
2019-04-05T02:12:46.900Z,59.00
2019-04-05T02:15:37.297Z,58.90
2019-04-05T02:18:25.806Z,59.00
2019-04-05T02:21:13.997Z,59.10
2019-04-05T02:24:04.081Z,59.00
2019-04-05T02:26:52.495Z,59.00
2019-04-05T02:29:41.447Z,59.00
2019-04-05T02:32:29.829Z,59.00
2019-04-05T02:35:18.653Z,59.00
2019-04-05T02:38:07.461Z,59.00
2019-04-05T02:40:59.151Z,58.90
2019-04-05T02:43:49.845Z,58.90
2019-04-05T02:46:40.273Z,58.90
2019-04-05T02:49:31.458Z,58.90
2019-04-05T02:52:22.129Z,58.80
2019-04-05T02:55:12.150Z,58.80
2019-04-05T02:58:03.385Z,58.80
2019-04-05T03:00:53.014Z,58.80
2019-04-05T03:03:43.380Z,58.80
2019-04-05T03:06:32.998Z,58.70
2019-04-05T03:09:22.557Z,58.70
2019-04-05T03:12:11.211Z,58.70
2019-04-05T03:14:43.726Z,58.70
2019-04-05T03:17:33.331Z,58.80
2019-04-05T03:20:21.840Z,58.70
2019-04-05T03:23:11.564Z,58.70
2019-04-05T03:26:03.267Z,58.70
2019-04-05T03:28:54.604Z,58.60
2019-04-05T03:31:44.409Z,58.50
2019-04-05T03:34:34.005Z,58.40
2019-04-05T03:40:10.613Z,58.40
2019-04-05T03:42:59.641Z,58.30
2019-04-05T03:45:48.502Z,58.20
2019-04-05T03:48:37.642Z,58.10
2019-04-05T03:51:27.333Z,58.20
2019-04-05T03:54:15.988Z,58.10
2019-04-05T03:57:05.258Z,58.00
2019-04-05T03:59:53.497Z,58.00
2019-04-05T04:02:42.231Z,57.90
2019-04-05T04:05:30.476Z,57.90
2019-04-05T04:08:18.933Z,57.90
2019-04-05T04:11:09.402Z,58.00
2019-04-05T04:13:58.192Z,57.90
2019-04-05T04:16:46.863Z,57.90
2019-04-05T04:19:35.571Z,57.90
2019-04-05T04:22:29.423Z,57.90
2019-04-05T04:25:17.546Z,57.90
2019-04-05T04:28:07.632Z,58.00
2019-04-05T04:30:56.077Z,58.00
2019-04-05T04:33:45.289Z,58.00
2019-04-05T04:36:34.730Z,58.00
2019-04-05T04:39:23.565Z,57.90
2019-04-05T04:42:12.393Z,57.90
2019-04-05T04:45:11.408Z,58.00
2019-04-05T04:47:51.564Z,58.00
2019-04-05T04:50:41.894Z,58.00
2019-04-05T04:53:30.356Z,58.00
2019-04-05T04:56:20.230Z,58.00
2019-04-05T04:59:08.372Z,58.00
2019-04-05T05:01:56.986Z,58.00
2019-04-05T05:04:46.389Z,58.00
2019-04-05T05:07:35.206Z,58.00
2019-04-05T05:10:23.700Z,58.10
2019-04-05T05:13:12.748Z,58.10
2019-04-05T05:15:43.762Z,58.10
2019-04-05T05:18:33.034Z,58.10
2019-04-05T05:21:21.548Z,58.10
2019-04-05T05:24:10.502Z,58.10
2019-04-05T05:26:59.230Z,58.10
2019-04-05T05:29:48.896Z,58.00
2019-04-05T05:32:38.416Z,58.00
2019-04-05T05:35:28.195Z,58.00
2019-04-05T05:38:16.717Z,57.90
2019-04-05T05:41:05.394Z,58.00
2019-04-05T05:43:53.805Z,57.90
2019-04-05T05:46:42.367Z,57.90
2019-04-05T05:49:30.933Z,57.80
2019-04-05T05:52:20.957Z,57.80
2019-04-05T05:55:10.395Z,57.90
2019-04-05T05:57:58.843Z,57.80
2019-04-05T06:00:47.878Z,57.80
2019-04-05T06:03:36.168Z,57.80
2019-04-05T06:06:24.773Z,57.70
2019-04-05T06:09:13.435Z,57.80
2019-04-05T06:12:01.590Z,57.90
2019-04-05T06:14:50.737Z,58.00
2019-04-05T06:17:39.163Z,58.00
2019-04-05T06:20:27.748Z,58.00
2019-04-05T06:23:15.818Z,58.00
2019-04-05T06:26:04.328Z,58.00
2019-04-05T06:28:52.792Z,58.20
2019-04-05T06:31:41.187Z,57.90
2019-04-05T06:34:29.551Z,58.00
2019-04-05T06:37:17.741Z,58.00
2019-04-05T06:40:08.683Z,57.90
2019-04-05T06:42:56.821Z,58.00
2019-04-05T06:45:45.093Z,57.90
2019-04-05T06:48:33.758Z,57.80
2019-04-05T06:51:22.155Z,57.70
2019-04-05T06:54:10.963Z,57.80
2019-04-05T06:56:59.423Z,57.70
2019-04-05T06:59:48.096Z,57.50
2019-04-05T07:02:36.635Z,57.40
2019-04-05T07:05:25.332Z,57.20
2019-04-05T07:08:13.998Z,57.20
2019-04-05T07:11:02.678Z,57.30
2019-04-05T07:13:51.643Z,57.40
2019-04-05T07:16:22.382Z,57.50
2019-04-05T07:19:10.895Z,56.80
2019-04-05T07:21:59.829Z,57.50
2019-04-05T07:24:49.523Z,52.90
2019-04-05T07:27:38.963Z,54.40
2019-04-05T07:30:28.978Z,55.00
2019-04-05T07:33:17.849Z,55.70
2019-04-05T07:36:06.329Z,56.00
2019-04-05T07:38:54.947Z,56.20
2019-04-05T07:41:43.730Z,55.70
2019-04-05T07:44:32.466Z,55.90
2019-04-05T07:47:21.082Z,55.90
2019-04-05T07:50:10.400Z,56.00
2019-04-05T07:52:58.752Z,56.10
2019-04-05T07:55:47.774Z,56.00
2019-04-05T07:58:36.138Z,56.20
2019-04-05T08:01:24.692Z,56.20
2019-04-05T08:04:13.123Z,56.70
2019-04-05T08:07:04.029Z,56.50
2019-04-05T08:09:53.331Z,56.70
2019-04-05T08:12:42.802Z,56.70
2019-04-05T08:15:32.445Z,56.40
2019-04-05T08:18:20.533Z,56.30
2019-04-05T08:21:08.979Z,56.30
2019-04-05T08:23:57.782Z,56.10
2019-04-05T08:26:46.196Z,56.20
2019-04-05T08:29:34.753Z,56.20
2019-04-05T08:32:23.307Z,56.00
2019-04-05T08:35:12.472Z,55.90
2019-04-05T08:37:43.244Z,55.80
2019-04-05T08:40:14.348Z,55.80
2019-04-05T08:42:45.282Z,54.10
2019-04-05T08:45:16.073Z,55.00
2019-04-05T08:48:04.852Z,55.10
2019-04-05T08:50:53.171Z,55.10
2019-04-05T08:53:41.608Z,54.90
2019-04-05T08:56:30.179Z,54.90
2019-04-05T08:59:18.685Z,55.00
2019-04-05T09:02:07.466Z,54.70
2019-04-05T09:04:55.739Z,55.40
2019-04-05T09:07:44.053Z,55.10
2019-04-05T09:10:32.247Z,55.00
2019-04-05T09:13:20.763Z,55.30
2019-04-05T09:16:11.632Z,54.90
2019-04-05T09:18:59.121Z,54.70
2019-04-05T09:21:47.372Z,54.50
2019-04-05T09:24:36.330Z,54.30
2019-04-05T09:27:07.334Z,54.20
2019-04-05T09:29:55.662Z,54.20
2019-04-05T09:32:44.185Z,54.00
2019-04-05T09:35:32.759Z,54.00
2019-04-05T09:38:21.262Z,53.90
2019-04-05T09:41:09.815Z,53.80
2019-04-05T09:43:58.063Z,54.00
2019-04-05T09:46:50.872Z,53.70
2019-04-05T09:49:37.365Z,52.60
2019-04-05T09:52:26.447Z,53.10
2019-04-05T09:55:15.411Z,53.50
2019-04-05T09:58:05.365Z,53.40
2019-04-05T10:00:54.007Z,53.40
2019-04-05T10:03:43.759Z,53.30
2019-04-05T10:06:32.295Z,49.50
2019-04-05T10:09:20.907Z,47.90
2019-04-05T10:12:09.343Z,47.80
2019-04-05T10:14:57.668Z,48.20
2019-04-05T10:17:46.159Z,48.90
2019-04-05T10:20:34.645Z,48.90
2019-04-05T10:23:22.952Z,49.80
2019-04-05T10:26:11.847Z,50.60
2019-04-05T10:29:00.431Z,51.50
2019-04-05T10:31:49.260Z,51.60
2019-04-05T10:34:37.571Z,51.80
2019-04-05T10:37:26.329Z,52.20
2019-04-05T10:40:16.031Z,51.90
2019-04-05T10:43:05.540Z,51.90
2019-04-05T10:45:54.097Z,52.20
2019-04-05T10:48:42.620Z,52.30
2019-04-05T10:51:31.095Z,52.20
2019-04-05T10:54:19.991Z,52.60
2019-04-05T10:57:08.338Z,52.80
2019-04-05T10:59:56.927Z,52.70
2019-04-05T11:02:45.361Z,52.50
2019-04-05T11:05:33.836Z,52.50
2019-04-05T11:08:22.037Z,52.60
2019-04-05T11:11:10.308Z,52.60
2019-04-05T11:13:59.520Z,52.50
2019-04-05T11:16:57.761Z,52.70
2019-04-05T11:19:37.803Z,52.70
2019-04-05T11:22:25.981Z,52.60
2019-04-05T11:25:16.122Z,52.50
2019-04-05T11:28:04.848Z,52.50
2019-04-05T11:30:53.506Z,52.60
2019-04-05T11:33:42.363Z,52.40
2019-04-05T11:36:31.202Z,52.40
2019-04-05T11:39:20.756Z,52.50
2019-04-05T11:42:09.807Z,52.40
2019-04-05T11:45:00.745Z,52.30
2019-04-05T11:47:53.518Z,52.30
2019-04-05T11:50:41.399Z,52.30
2019-04-05T11:53:30.081Z,52.30
2019-04-05T11:56:19.952Z,52.20
2019-04-05T11:59:10.383Z,52.20
2019-04-05T12:02:03.215Z,52.30
2019-04-05T12:04:52.597Z,52.20
2019-04-05T12:07:41.121Z,52.20
2019-04-05T12:10:32.041Z,52.20
2019-04-05T12:13:20.070Z,52.10
2019-04-05T12:16:10.461Z,52.10
2019-04-05T12:18:59.031Z,52.10
2019-04-05T12:21:47.571Z,52.00
2019-04-05T12:24:36.734Z,52.20
2019-04-05T12:27:25.214Z,52.20
2019-04-05T12:30:15.562Z,52.20
2019-04-05T12:33:13.682Z,52.20
2019-04-05T12:35:56.679Z,52.20
2019-04-05T12:38:45.045Z,52.20
2019-04-05T12:41:34.182Z,52.30
2019-04-05T12:44:22.320Z,52.40
2019-04-05T12:47:11.365Z,52.50
2019-04-05T12:50:00.308Z,52.40
2019-04-05T12:52:48.898Z,52.30
2019-04-05T12:55:37.454Z,50.70
2019-04-05T12:58:26.627Z,51.10
2019-04-05T13:01:15.300Z,51.50
2019-04-05T13:04:03.647Z,51.60
2019-04-05T13:06:53.007Z,51.80
2019-04-05T13:09:45.413Z,51.80
2019-04-05T13:12:32.241Z,51.90
2019-04-05T13:15:21.523Z,52.00
2019-04-05T13:18:09.880Z,52.10
2019-04-05T13:20:59.872Z,52.20
2019-04-05T13:23:48.153Z,52.20
2019-04-05T13:26:37.139Z,52.20
2019-04-05T13:29:26.182Z,52.20
2019-04-05T13:32:17.036Z,52.20
2019-04-05T13:35:04.792Z,52.20
2019-04-05T13:37:53.132Z,52.20
2019-04-05T13:40:41.746Z,52.30
2019-04-05T13:43:31.986Z,52.20
2019-04-05T13:46:22.724Z,52.20
2019-04-05T13:49:10.486Z,52.20
2019-04-05T13:51:59.636Z,52.20
2019-04-05T13:54:48.325Z,52.10
2019-04-05T13:57:38.464Z,52.10
2019-04-05T14:00:27.480Z,52.10
2019-04-05T14:03:16.322Z,52.10
2019-04-05T14:06:05.022Z,52.00
2019-04-05T14:08:53.374Z,52.10
2019-04-05T14:11:41.936Z,52.00
2019-04-05T14:14:30.993Z,51.50
2019-04-05T14:17:19.015Z,51.40
2019-04-05T14:20:09.319Z,51.50
2019-04-05T14:22:58.388Z,51.70
2019-04-05T14:25:46.965Z,51.80
2019-04-05T14:28:35.500Z,51.30
2019-04-05T14:31:23.913Z,51.40
2019-04-05T14:34:12.235Z,51.60
2019-04-05T14:37:00.761Z,51.80
2019-04-05T14:39:49.001Z,51.90
2019-04-05T14:42:37.776Z,52.00
2019-04-05T14:45:26.568Z,52.00
2019-04-05T14:48:14.762Z,52.10
2019-04-05T14:51:04.304Z,52.20
2019-04-05T14:53:52.561Z,52.30
2019-04-05T14:56:41.677Z,52.30
2019-04-05T14:59:32.652Z,52.40
2019-04-05T15:02:20.243Z,52.40
2019-04-05T15:05:10.310Z,52.40
2019-04-05T15:07:58.766Z,52.60
2019-04-05T15:10:47.050Z,52.60
2019-04-05T15:13:35.130Z,52.70
2019-04-05T15:16:23.969Z,52.70
2019-04-05T15:19:12.302Z,52.70
2019-04-05T15:22:06.023Z,52.70
2019-04-05T15:24:50.885Z,52.80
2019-04-05T15:27:39.212Z,52.80
2019-04-05T15:30:27.738Z,52.80
2019-04-05T15:33:16.374Z,52.90
2019-04-05T15:36:05.049Z,53.10
2019-04-05T15:38:53.405Z,53.50
2019-04-05T15:41:42.084Z,53.60
2019-04-05T15:44:30.699Z,53.70
2019-04-05T15:47:23.211Z,53.90
2019-04-05T15:50:10.398Z,54.30
2019-04-05T15:53:01.915Z,54.30
2019-04-05T15:55:48.990Z,54.40
2019-04-05T15:58:37.397Z,54.20
2019-04-05T16:01:25.584Z,54.20
2019-04-05T16:04:14.276Z,54.10
2019-04-05T16:07:02.694Z,54.10
2019-04-05T16:09:51.220Z,53.90
2019-04-05T16:12:39.609Z,53.90
2019-04-05T16:15:28.693Z,53.90
2019-04-05T16:18:17.182Z,53.90
2019-04-05T16:21:05.948Z,53.90
2019-04-05T16:23:54.193Z,53.90
2019-04-05T16:26:43.013Z,53.90
2019-04-05T16:29:31.738Z,53.90
2019-04-05T16:32:51.993Z,53.80
2019-04-05T16:35:40.464Z,53.80
2019-04-05T16:38:28.896Z,53.80
2019-04-05T16:41:17.243Z,53.70
2019-04-05T16:44:06.126Z,53.70
2019-04-05T16:46:54.361Z,53.70
2019-04-05T16:49:42.618Z,53.70
2019-04-05T16:52:43.778Z,53.70
2019-04-05T16:55:05.520Z,53.70
2019-04-05T16:57:36.202Z,53.70
2019-04-05T17:00:13.167Z,53.70
2019-04-05T17:02:43.877Z,53.70
2019-04-05T17:05:15.376Z,53.70
2019-04-05T17:07:46.113Z,53.70
2019-04-05T17:10:16.870Z,53.70
2019-04-05T17:12:47.813Z,53.60
2019-04-05T17:15:20.218Z,53.70
2019-04-05T17:18:08.440Z,53.60
2019-04-05T17:20:56.749Z,53.60
2019-04-05T17:23:45.077Z,53.60
2019-04-05T17:26:33.710Z,53.60
2019-04-05T17:29:23.324Z,53.60
2019-04-05T17:32:12.047Z,53.70
2019-04-05T17:35:00.470Z,53.60
2019-04-05T17:37:49.565Z,53.60
2019-04-05T17:40:38.131Z,53.60
2019-04-05T17:43:26.948Z,53.70
2019-04-05T17:46:15.539Z,53.80
2019-04-05T17:49:04.563Z,53.80
2019-04-05T17:51:54.213Z,53.80
2019-04-05T17:54:42.759Z,53.80
2019-04-05T17:57:32.212Z,53.80
2019-04-05T18:00:22.207Z,53.70
2019-04-05T18:03:10.921Z,53.60
2019-04-05T18:06:00.514Z,53.60
2019-04-05T18:08:49.112Z,53.60
2019-04-05T18:11:37.769Z,53.60
2019-04-05T18:14:26.476Z,53.50
2019-04-05T18:17:15.303Z,53.00
2019-04-05T18:20:04.878Z,53.20
2019-04-05T18:22:53.118Z,53.20
2019-04-05T18:25:42.025Z,53.20
2019-04-05T18:28:30.246Z,53.20
2019-04-05T18:31:18.548Z,53.30
2019-04-05T18:34:07.596Z,53.30
2019-04-05T18:36:56.213Z,53.20
2019-04-05T18:39:44.753Z,53.30
2019-04-05T18:42:33.228Z,53.30
2019-04-05T18:45:21.790Z,53.30
2019-04-05T18:48:10.234Z,53.30
2019-04-05T18:50:58.798Z,53.30
2019-04-05T18:53:47.340Z,53.30
2019-04-05T18:56:36.405Z,53.90
2019-04-05T18:59:25.152Z,53.30
2019-04-05T19:02:13.689Z,53.30
2019-04-05T19:05:02.375Z,53.30
2019-04-05T19:07:52.378Z,53.30
2019-04-05T19:10:41.143Z,53.30
2019-04-05T19:13:29.917Z,53.30
2019-04-05T19:16:19.270Z,53.30
2019-04-05T19:19:08.222Z,53.30
2019-04-05T19:21:56.933Z,53.30
2019-04-05T19:24:46.395Z,53.40
2019-04-05T19:27:35.058Z,53.40
2019-04-05T19:50:18.476Z,53.20
2019-04-05T19:53:07.283Z,53.20
2019-04-05T19:55:57.412Z,53.20
2019-04-05T19:58:46.046Z,53.30
2019-04-05T20:01:34.363Z,53.20
2019-04-05T20:04:23.025Z,53.30
2019-04-05T20:07:11.585Z,53.20
2019-04-05T20:10:00.423Z,53.20
2019-04-05T20:12:49.226Z,53.20
2019-04-05T20:15:37.770Z,53.20
2019-04-05T20:18:26.728Z,53.30
2019-04-05T20:21:15.485Z,53.30
2019-04-05T20:24:13.762Z,53.40
2019-04-05T20:26:54.424Z,53.40
2019-04-05T20:29:43.529Z,53.40
2019-04-05T20:32:31.869Z,53.40
2019-04-05T20:35:20.981Z,53.40
2019-04-05T20:38:09.676Z,53.40
2019-04-05T20:40:58.620Z,53.50
2019-04-05T20:43:48.368Z,53.60
2019-04-05T20:46:37.248Z,53.60
2019-04-05T20:49:25.711Z,53.50
2019-04-05T20:52:14.399Z,53.60
2019-04-05T20:55:03.554Z,53.60
2019-04-05T20:57:52.145Z,53.70
2019-04-05T21:00:40.618Z,53.70
2019-04-05T21:03:29.125Z,53.80
2019-04-05T21:06:18.086Z,53.80
2019-04-05T21:09:08.117Z,53.80
2019-04-05T21:11:56.123Z,53.90
2019-04-05T21:14:45.214Z,53.90
2019-04-05T21:17:33.773Z,54.00
2019-04-05T21:20:22.344Z,54.10
2019-04-05T21:23:11.008Z,54.10
2019-04-05T21:25:59.411Z,54.10
2019-04-05T21:28:47.895Z,54.20
2019-04-05T21:31:36.868Z,54.20
2019-04-05T21:34:25.198Z,54.30
2019-04-05T21:37:13.783Z,54.40
2019-04-05T21:40:01.908Z,54.40
2019-04-05T21:42:50.186Z,54.50
2019-04-05T21:45:39.106Z,54.50
2019-04-05T21:48:27.739Z,54.60
2019-04-05T21:51:16.082Z,54.60
2019-04-05T21:54:04.422Z,54.70
2019-04-05T21:56:53.903Z,54.80
2019-04-05T21:59:42.777Z,54.80
2019-04-05T22:02:32.112Z,54.90
2019-04-05T22:05:20.540Z,54.90
2019-04-05T22:08:09.874Z,55.00
2019-04-05T22:10:58.461Z,55.00
2019-04-05T22:13:47.449Z,55.00
2019-04-05T22:16:36.205Z,55.10
2019-04-05T22:19:25.035Z,55.20
2019-04-05T22:22:13.559Z,55.30
2019-04-05T22:25:02.147Z,55.20
2019-04-05T22:27:52.088Z,55.40
2019-04-05T22:30:40.424Z,55.50
2019-04-05T22:33:29.514Z,55.60
2019-04-05T22:36:18.630Z,55.70
2019-04-05T22:39:08.326Z,55.80
2019-04-05T22:41:56.778Z,55.90
2019-04-05T22:44:46.143Z,56.00
2019-04-05T22:47:35.455Z,56.00
2019-04-05T22:50:24.344Z,56.30
2019-04-05T22:53:13.377Z,56.30
2019-04-05T22:56:01.672Z,56.40
2019-04-05T22:58:50.887Z,56.50
2019-04-05T23:01:39.253Z,56.50
2019-04-05T23:04:27.611Z,56.70
2019-04-05T23:07:16.057Z,56.60
2019-04-05T23:10:07.542Z,56.70
2019-04-05T23:12:55.810Z,56.70
2019-04-05T23:15:44.137Z,56.80
2019-04-05T23:18:32.585Z,56.80
2019-04-05T23:21:20.666Z,56.90
2019-04-05T23:24:08.982Z,56.90
2019-04-05T23:26:57.641Z,56.90
2019-04-05T23:29:46.725Z,57.00
2019-04-05T23:32:35.132Z,56.90
2019-04-05T23:35:23.794Z,57.00
2019-04-05T23:38:12.349Z,57.10
2019-04-05T23:41:00.469Z,57.10
2019-04-05T23:43:48.875Z,57.10
2019-04-05T23:46:37.275Z,57.10
2019-04-05T23:49:25.457Z,57.10
2019-04-05T23:52:14.529Z,57.20
2019-04-05T23:55:04.035Z,57.20
2019-04-05T23:57:52.069Z,57.20
